createdAt,value
2022-08-02T00:01:14.540Z,24.39
2022-08-02T00:03:45.211Z,24.41
2022-08-02T00:06:16.437Z,24.40
2022-08-02T00:08:47.170Z,24.38
2022-08-02T00:11:17.860Z,24.40
2022-08-02T00:13:48.528Z,24.41
2022-08-02T00:16:19.252Z,24.42
2022-08-02T00:18:49.904Z,24.44
2022-08-02T00:21:20.558Z,24.46
2022-08-02T00:24:27.982Z,24.48
2022-08-02T00:26:42.023Z,24.51
2022-08-02T00:29:12.696Z,24.54
2022-08-02T00:31:43.349Z,24.57
2022-08-02T00:34:28.406Z,24.58
2022-08-02T00:37:01.853Z,24.55
2022-08-02T00:39:35.102Z,24.45
2022-08-02T00:42:07.484Z,24.37
2022-08-02T00:44:38.376Z,24.33
2022-08-02T00:47:09.036Z,24.32
2022-08-02T00:49:39.811Z,24.33
2022-08-02T00:52:10.971Z,24.38
2022-08-02T00:54:41.888Z,24.40
2022-08-02T00:57:12.622Z,24.43
2022-08-02T00:59:43.313Z,24.44
2022-08-02T01:02:14.541Z,24.46
2022-08-02T01:04:45.441Z,24.47
2022-08-02T01:07:16.062Z,24.47
2022-08-02T01:09:46.750Z,24.48
2022-08-02T01:12:17.874Z,24.49
2022-08-02T01:14:49.228Z,24.50
2022-08-02T01:17:21.997Z,24.52
2022-08-02T01:19:53.055Z,24.53
2022-08-02T01:22:59.601Z,24.54
2022-08-02T01:25:35.452Z,24.54
2022-08-02T01:28:18.919Z,24.53
2022-08-02T01:30:49.692Z,24.52
2022-08-02T01:33:22.716Z,24.51
2022-08-02T01:35:54.258Z,24.50
2022-08-02T01:38:25.434Z,24.49
2022-08-02T01:40:56.211Z,24.49
2022-08-02T01:43:26.948Z,24.48
2022-08-02T01:45:57.677Z,24.45
2022-08-02T01:48:28.531Z,24.42
2022-08-02T01:50:59.755Z,24.37
2022-08-02T01:53:30.387Z,24.33
2022-08-02T01:56:01.490Z,24.31
2022-08-02T01:58:32.911Z,24.30
2022-08-02T02:01:03.679Z,24.29
2022-08-02T02:03:34.464Z,24.27
2022-08-02T02:06:05.260Z,24.23
2022-08-02T02:08:38.066Z,24.21
2022-08-02T02:12:05.828Z,24.17
2022-08-02T02:14:01.965Z,24.11
2022-08-02T02:16:33.304Z,24.07
2022-08-02T02:19:06.035Z,24.03
2022-08-02T02:21:36.680Z,24.02
2022-08-02T02:24:11.665Z,24.01
2022-08-02T02:26:48.635Z,24.01
2022-08-02T02:29:24.892Z,24.01
2022-08-02T02:31:55.727Z,23.97
2022-08-02T02:34:28.369Z,23.95
2022-08-02T02:37:00.082Z,23.94
2022-08-02T02:39:30.915Z,23.93
2022-08-02T02:42:03.405Z,23.92
2022-08-02T02:44:34.524Z,23.92
2022-08-02T02:47:05.279Z,23.90
2022-08-02T02:49:36.413Z,23.88
2022-08-02T02:52:07.371Z,23.86
2022-08-02T02:54:38.219Z,23.82
2022-08-02T02:57:08.887Z,23.79
2022-08-02T02:59:48.923Z,23.79
2022-08-02T03:02:21.255Z,23.77
2022-08-02T03:04:57.295Z,23.78
2022-08-02T03:07:28.883Z,23.76
2022-08-02T03:09:59.817Z,23.76
2022-08-02T03:12:32.237Z,23.75
2022-08-02T03:15:05.247Z,23.76
2022-08-02T03:17:46.132Z,23.74
2022-08-02T03:20:17.433Z,23.73
2022-08-02T03:22:48.520Z,23.72
2022-08-02T03:25:19.502Z,23.69
2022-08-02T03:27:50.158Z,23.68
2022-08-02T03:30:24.786Z,23.67
2022-08-02T03:32:55.505Z,23.66
2022-08-02T03:35:26.102Z,23.67
2022-08-02T03:37:56.762Z,23.69
2022-08-02T03:40:27.688Z,23.65
2022-08-02T03:42:58.818Z,23.50
2022-08-02T03:45:29.724Z,23.35
2022-08-02T03:48:00.523Z,23.26
2022-08-02T03:50:31.149Z,23.08
2022-08-02T03:53:01.887Z,22.88
2022-08-02T03:55:32.561Z,22.77
2022-08-02T03:58:03.235Z,22.70
2022-08-02T04:00:34.022Z,22.67
2022-08-02T04:03:04.654Z,22.69
2022-08-02T04:05:35.408Z,22.75
2022-08-02T04:08:36.354Z,22.81
2022-08-02T04:11:25.517Z,22.85
2022-08-02T04:13:56.881Z,22.87
2022-08-02T04:16:29.638Z,22.89
2022-08-02T04:19:02.217Z,22.90
2022-08-02T04:21:49.046Z,22.88
2022-08-02T04:24:25.117Z,22.88
2022-08-02T04:27:06.678Z,22.91
2022-08-02T04:29:48.610Z,22.91
2022-08-02T04:32:19.539Z,22.94
2022-08-02T04:35:17.781Z,22.97
2022-08-02T04:38:08.670Z,22.99
2022-08-02T04:40:31.535Z,23.00
2022-08-02T04:43:02.186Z,23.03
2022-08-02T04:45:32.884Z,23.05
2022-08-02T04:48:05.795Z,23.07
2022-08-02T04:50:37.011Z,23.09
2022-08-02T04:53:07.794Z,23.06
2022-08-02T04:55:39.059Z,23.03
2022-08-02T04:58:30.131Z,23.02
2022-08-02T05:01:00.482Z,23.05
2022-08-02T05:03:31.207Z,23.07
2022-08-02T05:06:01.886Z,23.09
2022-08-02T05:08:32.699Z,23.11
2022-08-02T05:11:03.389Z,23.12
2022-08-02T05:13:34.141Z,23.09
2022-08-02T05:16:31.034Z,23.06
2022-08-02T05:19:03.071Z,23.08
2022-08-02T05:21:34.251Z,23.13
2022-08-02T05:24:05.157Z,23.18
2022-08-02T05:26:35.820Z,23.19
2022-08-02T05:29:06.479Z,23.26
2022-08-02T05:31:37.175Z,23.33
2022-08-02T05:34:11.863Z,23.39
2022-08-02T05:36:43.077Z,23.48
2022-08-02T05:39:18.767Z,23.59
2022-08-02T05:41:49.873Z,23.71
2022-08-02T05:44:20.602Z,23.82
2022-08-02T05:46:51.295Z,23.94
2022-08-02T05:49:22.066Z,24.04
2022-08-02T05:51:54.163Z,24.14
2022-08-02T05:54:25.595Z,24.26
2022-08-02T05:56:57.623Z,24.35
2022-08-02T05:59:34.574Z,24.40
2022-08-02T06:02:05.985Z,24.48
2022-08-02T06:04:45.811Z,24.54
2022-08-02T06:07:16.445Z,24.62
2022-08-02T06:09:47.154Z,24.70
2022-08-02T06:12:18.123Z,24.79
2022-08-02T06:14:52.592Z,24.85
2022-08-02T06:17:25.443Z,24.91
2022-08-02T06:19:56.685Z,24.99
2022-08-02T06:22:37.545Z,25.07
2022-08-02T06:25:11.718Z,25.17
2022-08-02T06:28:01.119Z,25.25
2022-08-02T06:30:33.387Z,25.32
2022-08-02T06:33:04.329Z,25.37
2022-08-02T06:35:35.926Z,25.44
2022-08-02T06:38:06.654Z,25.51
2022-08-02T06:40:37.902Z,25.57
2022-08-02T06:43:14.437Z,25.63
2022-08-02T06:45:45.145Z,25.69
2022-08-02T06:48:15.921Z,25.78
2022-08-02T06:50:46.559Z,25.93
2022-08-02T06:53:17.313Z,26.11
2022-08-02T06:55:47.982Z,26.27
2022-08-02T06:58:18.662Z,26.40
2022-08-02T07:00:49.460Z,26.50
2022-08-02T07:03:20.137Z,26.55
2022-08-02T07:05:50.960Z,26.58
2022-08-02T07:08:21.809Z,26.60
2022-08-02T07:10:52.498Z,26.68
2022-08-02T07:13:23.197Z,26.80
2022-08-02T07:15:53.903Z,26.91
2022-08-02T07:18:25.102Z,27.00
2022-08-02T07:20:55.799Z,27.07
2022-08-02T07:23:26.616Z,27.09
2022-08-02T07:26:02.642Z,27.18
2022-08-02T07:28:34.286Z,27.27
2022-08-02T07:31:05.119Z,27.35
2022-08-02T07:33:37.710Z,27.40
2022-08-02T07:36:17.030Z,27.52
2022-08-02T07:38:53.631Z,27.63
2022-08-02T07:41:24.287Z,27.75
2022-08-02T07:43:54.876Z,27.76
2022-08-02T07:46:25.844Z,27.73
2022-08-02T07:48:59.320Z,27.85
2022-08-02T07:51:31.818Z,27.94
2022-08-02T07:54:04.888Z,28.05
2022-08-02T07:56:35.720Z,28.15
2022-08-02T07:59:06.593Z,28.20
2022-08-02T08:01:37.359Z,28.25
2022-08-02T08:04:10.658Z,28.37
2022-08-02T08:06:41.365Z,28.49
2022-08-02T08:09:12.043Z,28.62
2022-08-02T08:11:42.795Z,28.69
2022-08-02T08:14:16.631Z,28.61
2022-08-02T08:16:47.882Z,28.59
2022-08-02T08:19:18.524Z,28.64
2022-08-02T08:21:49.248Z,28.68
2022-08-02T08:24:22.388Z,28.78
2022-08-02T08:26:53.032Z,28.98
2022-08-02T08:29:24.333Z,29.19
2022-08-02T08:31:54.946Z,29.27
2022-08-02T08:34:27.276Z,29.40
2022-08-02T08:36:57.958Z,29.54
2022-08-02T08:39:28.543Z,29.61
2022-08-02T08:41:59.307Z,29.64
2022-08-02T08:44:30.041Z,29.66
2022-08-02T08:47:01.691Z,29.60
2022-08-02T08:49:33.393Z,29.62
2022-08-02T08:52:05.647Z,29.63
2022-08-02T08:54:37.316Z,29.71
2022-08-02T08:57:08.452Z,29.71
2022-08-02T08:59:39.501Z,29.75
2022-08-02T09:02:21.530Z,29.91
2022-08-02T09:04:55.129Z,30.09
2022-08-02T09:07:26.260Z,30.25
2022-08-02T09:09:57.220Z,30.43
2022-08-02T09:12:28.075Z,30.58
2022-08-02T09:14:58.984Z,30.69
2022-08-02T09:17:29.651Z,30.77
2022-08-02T09:20:10.231Z,30.93
2022-08-02T09:22:41.376Z,31.09
2022-08-02T09:25:12.277Z,31.12
2022-08-02T09:27:43.022Z,31.30
2022-08-02T09:30:16.939Z,31.49
2022-08-02T09:32:48.266Z,31.68
2022-08-02T09:36:06.746Z,31.79
2022-08-02T09:38:25.842Z,31.76
2022-08-02T09:40:57.368Z,31.81
2022-08-02T09:44:03.846Z,32.03
2022-08-02T09:46:33.637Z,32.27
2022-08-02T09:49:05.460Z,32.40
2022-08-02T09:51:36.930Z,32.52
2022-08-02T09:54:09.320Z,32.86
2022-08-02T09:56:44.317Z,33.37
2022-08-02T09:59:15.650Z,33.80
2022-08-02T10:01:50.547Z,34.34
2022-08-02T10:04:24.711Z,34.73
2022-08-02T10:06:55.751Z,35.05
2022-08-02T10:09:28.775Z,35.07
2022-08-02T10:11:59.506Z,34.98
2022-08-02T10:14:30.111Z,35.04
2022-08-02T10:17:00.780Z,35.01
2022-08-02T10:20:00.943Z,35.05
2022-08-02T10:22:22.319Z,35.40
2022-08-02T10:24:53.124Z,35.47
2022-08-02T10:27:25.322Z,35.41
2022-08-02T10:29:56.122Z,35.17
2022-08-02T10:32:28.457Z,34.92
2022-08-02T10:35:19.074Z,35.00
2022-08-02T10:37:52.102Z,34.91
2022-08-02T10:40:27.063Z,34.86
2022-08-02T10:43:00.921Z,34.85
2022-08-02T10:45:31.949Z,34.95
2022-08-02T10:48:06.208Z,35.27
2022-08-02T10:50:55.727Z,35.69
2022-08-02T10:53:27.386Z,36.03
2022-08-02T10:55:58.594Z,36.06
2022-08-02T10:58:30.450Z,36.05
2022-08-02T11:01:04.917Z,35.83
2022-08-02T11:03:40.991Z,35.34
2022-08-02T11:06:25.350Z,34.92
2022-08-02T11:09:32.462Z,34.58
2022-08-02T11:12:04.878Z,34.68
2022-08-02T11:14:36.526Z,35.24
2022-08-02T11:17:14.322Z,35.82
2022-08-02T11:20:02.232Z,36.01
2022-08-02T11:22:32.944Z,35.71
2022-08-02T11:25:10.112Z,35.62
2022-08-02T11:27:40.823Z,35.80
2022-08-02T11:30:14.908Z,35.99
2022-08-02T11:32:45.705Z,36.25
2022-08-02T11:35:16.307Z,36.56
2022-08-02T11:37:47.095Z,36.85
2022-08-02T11:40:19.078Z,37.04
2022-08-02T11:42:51.291Z,37.21
2022-08-02T11:45:29.333Z,37.52
2022-08-02T11:48:05.478Z,37.87
2022-08-02T11:50:39.175Z,37.97
2022-08-02T11:53:16.804Z,37.91
2022-08-02T11:55:47.424Z,37.95
2022-08-02T11:58:18.142Z,38.12
2022-08-02T12:00:49.473Z,38.33
2022-08-02T12:03:21.353Z,38.56
2022-08-02T12:06:05.184Z,38.54
2022-08-02T12:08:38.270Z,38.68
2022-08-02T12:11:08.902Z,38.87
2022-08-02T12:13:56.524Z,38.97
2022-08-02T12:16:51.783Z,38.76
2022-08-02T12:19:26.612Z,38.32
2022-08-02T12:22:14.117Z,38.10
2022-08-02T12:24:45.792Z,37.96
2022-08-02T12:27:32.836Z,37.76
2022-08-02T12:30:06.043Z,37.81
2022-08-02T12:32:37.012Z,38.06
2022-08-02T12:35:11.744Z,37.93
2022-08-02T12:37:43.814Z,37.95
2022-08-02T12:40:25.159Z,38.16
2022-08-02T12:42:58.710Z,38.51
2022-08-02T12:45:40.858Z,38.57
2022-08-02T12:48:12.719Z,38.38
2022-08-02T12:50:44.067Z,38.07
2022-08-02T12:53:16.094Z,37.85
2022-08-02T12:55:59.874Z,37.72
2022-08-02T12:58:38.856Z,37.49
2022-08-02T13:01:09.545Z,37.43
2022-08-02T13:04:07.954Z,37.63
2022-08-02T13:06:40.893Z,37.79
2022-08-02T13:09:17.318Z,38.00
2022-08-02T13:11:48.287Z,38.28
2022-08-02T13:14:19.095Z,38.16
2022-08-02T13:16:49.779Z,37.83
2022-08-02T13:19:20.441Z,37.47
2022-08-02T13:22:01.995Z,37.22
2022-08-02T13:24:40.076Z,36.75
2022-08-02T13:27:25.672Z,36.73
2022-08-02T13:29:56.722Z,37.01
2022-08-02T13:32:28.153Z,37.18
2022-08-02T13:34:59.334Z,37.18
2022-08-02T13:37:29.968Z,37.00
2022-08-02T13:40:20.581Z,36.88
2022-08-02T13:42:51.752Z,36.83
2022-08-02T13:45:22.655Z,36.61
2022-08-02T13:48:04.029Z,36.33
2022-08-02T13:50:36.690Z,36.18
2022-08-02T13:53:07.396Z,36.19
2022-08-02T13:55:38.811Z,36.07
2022-08-02T13:58:14.256Z,35.98
2022-08-02T14:00:45.020Z,36.00
2022-08-02T14:03:15.781Z,36.19
2022-08-02T14:05:48.501Z,36.33
2022-08-02T14:08:20.322Z,36.40
2022-08-02T14:10:51.329Z,36.57
2022-08-02T14:13:21.960Z,36.86
2022-08-02T14:15:52.601Z,37.11
2022-08-02T14:18:23.344Z,37.16
2022-08-02T14:20:54.305Z,37.16
2022-08-02T14:23:49.037Z,37.33
2022-08-02T14:26:16.177Z,37.45
2022-08-02T14:28:58.603Z,37.60
2022-08-02T14:31:29.294Z,37.44
2022-08-02T14:34:00.126Z,37.26
2022-08-02T14:36:30.831Z,37.19
2022-08-02T14:39:02.208Z,36.99
2022-08-02T14:41:59.801Z,36.90
2022-08-02T14:44:27.340Z,36.68
2022-08-02T14:46:58.269Z,36.55
2022-08-02T14:49:29.039Z,36.46
2022-08-02T14:51:59.787Z,36.23
2022-08-02T14:54:32.112Z,36.06
2022-08-02T14:57:04.168Z,35.74
2022-08-02T14:59:34.823Z,35.41
2022-08-02T15:02:05.730Z,35.14
2022-08-02T15:04:42.701Z,35.02
2022-08-02T15:07:15.504Z,34.93
2022-08-02T15:09:46.205Z,35.07
2022-08-02T15:12:17.151Z,35.22
2022-08-02T15:14:48.070Z,35.28
2022-08-02T15:17:18.802Z,35.38
2022-08-02T15:19:57.931Z,35.47
2022-08-02T15:22:31.034Z,35.54
2022-08-02T15:25:02.846Z,35.53
2022-08-02T15:27:33.427Z,35.51
2022-08-02T15:30:09.132Z,35.51
2022-08-02T15:32:39.890Z,35.46
2022-08-02T15:35:23.516Z,35.41
2022-08-02T15:37:54.406Z,35.24
2022-08-02T15:40:25.134Z,35.10
2022-08-02T15:42:55.755Z,34.93
2022-08-02T15:45:27.995Z,34.71
2022-08-02T15:47:58.658Z,34.49
2022-08-02T15:50:29.444Z,34.43
2022-08-02T15:53:00.196Z,34.29
2022-08-02T15:55:40.035Z,34.15
2022-08-02T15:58:22.421Z,33.96
2022-08-02T16:00:53.822Z,33.88
2022-08-02T16:03:24.593Z,33.84
2022-08-02T16:05:55.239Z,33.80
2022-08-02T16:08:26.041Z,33.78
2022-08-02T16:10:57.185Z,33.71
2022-08-02T16:13:52.884Z,33.66
2022-08-02T16:16:34.625Z,33.59
2022-08-02T16:19:45.976Z,33.45
2022-08-02T16:21:57.374Z,33.36
2022-08-02T16:24:28.180Z,33.26
2022-08-02T16:26:59.020Z,33.13
2022-08-02T16:29:33.392Z,33.08
2022-08-02T16:32:04.841Z,33.04
2022-08-02T16:34:50.686Z,33.01
2022-08-02T16:37:27.727Z,32.99
2022-08-02T16:40:18.406Z,32.91
2022-08-02T16:42:50.523Z,32.84
2022-08-02T16:48:12.746Z,32.71
2022-08-02T16:50:46.653Z,32.60
2022-08-02T16:53:27.459Z,32.38
2022-08-02T16:56:08.125Z,32.15
2022-08-02T16:58:38.869Z,32.02
2022-08-02T17:01:15.805Z,31.89
2022-08-02T17:03:56.281Z,31.73
2022-08-02T17:06:28.627Z,31.62
2022-08-02T17:08:59.919Z,31.57
2022-08-02T17:11:30.658Z,31.53
2022-08-02T17:14:01.868Z,31.47
2022-08-02T17:16:32.543Z,31.41
2022-08-02T17:19:03.249Z,31.32
2022-08-02T17:21:34.157Z,31.26
2022-08-02T17:24:08.192Z,31.18
2022-08-02T17:26:55.844Z,31.14
2022-08-02T17:29:26.619Z,31.09
2022-08-02T17:32:09.025Z,31.04
2022-08-02T17:34:49.092Z,31.02
2022-08-02T17:37:31.805Z,30.99
2022-08-02T17:40:03.616Z,30.98
2022-08-02T17:42:35.265Z,30.92
2022-08-02T17:45:25.022Z,30.81
2022-08-02T17:48:04.647Z,30.74
2022-08-02T17:50:36.285Z,30.64
2022-08-02T17:53:07.094Z,30.52
2022-08-02T17:55:42.415Z,30.41
2022-08-02T17:58:13.522Z,30.34
2022-08-02T18:00:44.923Z,30.24
2022-08-02T18:03:15.949Z,30.10
2022-08-02T18:05:53.456Z,29.98
2022-08-02T18:08:26.290Z,29.87
2022-08-02T18:10:58.500Z,29.78
2022-08-02T18:13:33.085Z,29.72
2022-08-02T18:16:21.082Z,29.67
2022-08-02T18:18:52.293Z,29.62
2022-08-02T18:21:23.213Z,29.55
2022-08-02T18:23:58.479Z,29.51
2022-08-02T18:26:30.358Z,29.43
2022-08-02T18:29:03.649Z,29.40
2022-08-02T18:31:39.659Z,29.38
2022-08-02T18:34:25.236Z,29.34
2022-08-02T18:36:56.016Z,29.29
2022-08-02T18:39:26.737Z,29.21
2022-08-02T18:42:03.894Z,29.17
2022-08-02T18:44:34.658Z,29.13
2022-08-02T18:47:05.848Z,29.09
2022-08-02T18:49:46.614Z,29.02
2022-08-02T18:52:31.289Z,28.98
2022-08-02T18:55:05.192Z,28.94
2022-08-02T18:58:17.567Z,28.88
2022-08-02T19:00:29.400Z,28.81
2022-08-02T19:03:00.047Z,28.76
2022-08-02T19:05:52.373Z,28.70
2022-08-02T19:08:25.381Z,28.61
2022-08-02T19:10:57.303Z,28.54
2022-08-02T19:13:28.264Z,28.48
2022-08-02T19:15:58.964Z,28.41
2022-08-02T19:18:30.052Z,28.38
2022-08-02T19:21:05.214Z,28.35
2022-08-02T19:23:36.844Z,28.32
2022-08-02T19:26:25.880Z,28.23
2022-08-02T19:28:56.806Z,28.19
2022-08-02T19:31:34.772Z,28.18
2022-08-02T19:34:20.616Z,28.12
2022-08-02T19:36:55.961Z,28.06
2022-08-02T19:39:26.919Z,28.00
2022-08-02T19:41:57.736Z,27.90
2022-08-02T19:44:29.547Z,27.76
2022-08-02T19:47:00.564Z,27.63
2022-08-02T19:49:40.211Z,27.54
2022-08-02T19:52:21.621Z,27.42
2022-08-02T19:54:54.899Z,27.32
2022-08-02T19:57:27.080Z,27.21
2022-08-02T19:59:59.303Z,27.11
2022-08-02T20:02:30.053Z,27.06
2022-08-02T20:05:08.040Z,27.01
2022-08-02T20:07:54.968Z,26.97
2022-08-02T20:10:27.661Z,26.97
2022-08-02T20:12:58.410Z,26.95
2022-08-02T20:15:56.556Z,26.93
2022-08-02T20:18:26.617Z,26.89
2022-08-02T20:20:57.979Z,26.80
2022-08-02T20:23:32.097Z,26.69
2022-08-02T20:26:06.422Z,26.59
2022-08-02T20:28:40.210Z,26.53
2022-08-02T20:31:10.905Z,26.50
2022-08-02T20:33:56.133Z,26.47
2022-08-02T20:36:27.714Z,26.45
2022-08-02T20:38:58.314Z,26.44
2022-08-02T20:41:37.029Z,26.42
2022-08-02T20:44:30.639Z,26.40
2022-08-02T20:47:02.205Z,26.33
2022-08-02T20:49:40.803Z,26.30
2022-08-02T20:52:23.278Z,26.27
2022-08-02T20:54:55.086Z,26.27
2022-08-02T20:57:48.586Z,26.21
2022-08-02T21:00:17.242Z,26.13
2022-08-02T21:02:50.680Z,26.07
2022-08-02T21:05:43.806Z,26.06
2022-08-02T21:08:14.889Z,26.06
2022-08-02T21:10:51.949Z,26.07
2022-08-02T21:13:26.156Z,26.07
2022-08-02T21:16:04.545Z,26.06
2022-08-02T21:18:41.261Z,26.07
2022-08-02T21:21:12.200Z,26.04
2022-08-02T21:23:48.769Z,26.02
2022-08-02T21:29:15.693Z,25.99
2022-08-02T21:31:46.455Z,25.94
2022-08-02T21:34:26.644Z,25.90
2022-08-02T21:36:58.117Z,25.88
2022-08-02T21:39:28.994Z,25.86
2022-08-02T21:41:59.831Z,25.85
2022-08-02T21:44:30.631Z,25.82
2022-08-02T21:47:01.289Z,25.82
2022-08-02T21:50:08.506Z,25.81
2022-08-02T21:52:25.228Z,25.81
2022-08-02T21:54:57.029Z,25.84
2022-08-02T21:57:34.573Z,25.85
2022-08-02T22:00:07.252Z,25.83
2022-08-02T22:02:37.979Z,25.82
2022-08-02T22:05:13.356Z,25.84
2022-08-02T22:07:45.717Z,25.88
2022-08-02T22:10:16.729Z,25.88
2022-08-02T22:12:50.016Z,25.82
2022-08-02T22:15:25.926Z,25.78
2022-08-02T22:18:07.047Z,25.77
2022-08-02T22:20:45.183Z,25.76
2022-08-02T22:23:22.479Z,25.78
2022-08-02T22:26:08.479Z,25.76
2022-08-02T22:28:51.160Z,25.77
2022-08-02T22:31:40.941Z,25.78
2022-08-02T22:34:36.993Z,25.76
2022-08-02T22:37:07.305Z,25.77
2022-08-02T22:39:38.455Z,25.76
2022-08-02T22:42:29.144Z,25.74
2022-08-02T22:45:00.257Z,25.75
2022-08-02T22:47:38.542Z,25.75
2022-08-02T22:50:11.937Z,25.74
2022-08-02T22:52:46.821Z,25.73
2022-08-02T22:55:21.473Z,25.72
2022-08-02T22:57:57.054Z,25.69
2022-08-02T22:58:34.617Z,32.76
2022-08-02T22:59:10.572Z,25.99
2022-08-02T23:00:28.229Z,25.67
2022-08-02T23:02:58.981Z,25.63
2022-08-02T23:05:29.722Z,25.60
2022-08-02T23:08:00.435Z,25.57
2022-08-02T23:10:31.088Z,25.53
2022-08-02T23:13:01.754Z,25.49
2022-08-02T23:15:52.484Z,25.43
2022-08-02T23:18:40.788Z,25.33
2022-08-02T23:21:11.576Z,25.26
2022-08-02T23:23:42.180Z,25.19
2022-08-02T23:26:12.841Z,25.15
2022-08-02T23:28:43.612Z,25.12
2022-08-02T23:31:33.836Z,25.06
2022-08-02T23:34:08.985Z,25.06
2022-08-02T23:36:39.682Z,25.08
2022-08-02T23:39:10.383Z,25.10
2022-08-02T23:41:41.006Z,25.10
2022-08-02T23:44:14.167Z,25.10
2022-08-02T23:46:46.296Z,25.11
2022-08-02T23:49:17.237Z,25.10
2022-08-02T23:51:48.100Z,25.09
2022-08-02T23:54:18.860Z,25.07
2022-08-02T23:56:49.645Z,25.05
2022-08-02T23:59:20.334Z,25.05
